sensor_id;sensor_type;location;lat;lon;timestamp;P1;durP1;ratioP1;P2;durP2;ratioP2
67049;SDS011;53955;52.442;13.284;2023-05-19T00:01:49;4.88;;;2.00;;
67049;SDS011;53955;52.442;13.284;2023-05-19T00:04:17;4.30;;;2.00;;
67049;SDS011;53955;52.442;13.284;2023-05-19T00:06:46;4.97;;;2.15;;
67049;SDS011;53955;52.442;13.284;2023-05-19T00:09:16;6.22;;;1.80;;
67049;SDS011;53955;52.442;13.284;2023-05-19T00:11:43;6.28;;;1.92;;
67049;SDS011;53955;52.442;13.284;2023-05-19T00:14:10;9.85;;;2.20;;
67049;SDS011;53955;52.442;13.284;2023-05-19T00:16:37;6.38;;;1.40;;
67049;SDS011;53955;52.442;13.284;2023-05-19T00:19:04;6.60;;;2.20;;
67049;SDS011;53955;52.442;13.284;2023-05-19T00:21:34;6.38;;;2.22;;
67049;SDS011;53955;52.442;13.284;2023-05-19T00:24:03;3.85;;;1.70;;
67049;SDS011;53955;52.442;13.284;2023-05-19T00:26:30;6.00;;;2.10;;
67049;SDS011;53955;52.442;13.284;2023-05-19T00:28:57;4.32;;;1.75;;
67049;SDS011;53955;52.442;13.284;2023-05-19T00:31:23;5.40;;;1.98;;
67049;SDS011;53955;52.442;13.284;2023-05-19T00:33:50;4.90;;;2.03;;
67049;SDS011;53955;52.442;13.284;2023-05-19T00:36:17;5.10;;;1.87;;
67049;SDS011;53955;52.442;13.284;2023-05-19T00:38:43;5.32;;;1.67;;
67049;SDS011;53955;52.442;13.284;2023-05-19T00:41:11;3.58;;;1.70;;
67049;SDS011;53955;52.442;13.284;2023-05-19T00:43:38;6.15;;;1.58;;
67049;SDS011;53955;52.442;13.284;2023-05-19T00:46:05;6.65;;;2.00;;
67049;SDS011;53955;52.442;13.284;2023-05-19T00:48:32;7.88;;;2.00;;
67049;SDS011;53955;52.442;13.284;2023-05-19T00:50:58;5.40;;;1.73;;
67049;SDS011;53955;52.442;13.284;2023-05-19T00:53:29;6.03;;;1.88;;
67049;SDS011;53955;52.442;13.284;2023-05-19T00:55:56;3.72;;;2.03;;
67049;SDS011;53955;52.442;13.284;2023-05-19T00:58:26;6.20;;;2.30;;
67049;SDS011;53955;52.442;13.284;2023-05-19T01:00:54;4.87;;;2.07;;
67049;SDS011;53955;52.442;13.284;2023-05-19T01:03:26;6.57;;;2.37;;
67049;SDS011;53955;52.442;13.284;2023-05-19T01:05:54;6.30;;;2.10;;
67049;SDS011;53955;52.442;13.284;2023-05-19T01:08:21;5.40;;;1.95;;
67049;SDS011;53955;52.442;13.284;2023-05-19T01:10:48;5.80;;;1.77;;
67049;SDS011;53955;52.442;13.284;2023-05-19T01:13:15;3.47;;;2.10;;
67049;SDS011;53955;52.442;13.284;2023-05-19T01:15:48;7.57;;;2.35;;
67049;SDS011;53955;52.442;13.284;2023-05-19T01:18:28;5.88;;;2.22;;
67049;SDS011;53955;52.442;13.284;2023-05-19T01:21:06;3.78;;;1.90;;
67049;SDS011;53955;52.442;13.284;2023-05-19T01:24:02;7.00;;;1.97;;
67049;SDS011;53955;52.442;13.284;2023-05-19T01:26:52;3.30;;;1.70;;
67049;SDS011;53955;52.442;13.284;2023-05-19T01:29:41;6.68;;;1.88;;
67049;SDS011;53955;52.442;13.284;2023-05-19T01:32:18;4.38;;;2.10;;
67049;SDS011;53955;52.442;13.284;2023-05-19T01:34:46;5.07;;;2.10;;
67049;SDS011;53955;52.442;13.284;2023-05-19T01:37:15;6.10;;;1.83;;
67049;SDS011;53955;52.442;13.284;2023-05-19T01:39:45;3.67;;;1.87;;
67049;SDS011;53955;52.442;13.284;2023-05-19T01:42:13;6.03;;;2.00;;
67049;SDS011;53955;52.442;13.284;2023-05-19T01:44:41;4.63;;;2.00;;
67049;SDS011;53955;52.442;13.284;2023-05-19T01:47:08;6.30;;;1.80;;
67049;SDS011;53955;52.442;13.284;2023-05-19T01:49:36;4.33;;;1.90;;
67049;SDS011;53955;52.442;13.284;2023-05-19T01:52:03;4.63;;;2.00;;
67049;SDS011;53955;52.442;13.284;2023-05-19T01:54:30;3.83;;;2.20;;
67049;SDS011;53955;52.442;13.284;2023-05-19T01:56:59;5.82;;;2.33;;
67049;SDS011;53955;52.442;13.284;2023-05-19T01:59:36;5.22;;;2.00;;
67049;SDS011;53955;52.442;13.284;2023-05-19T02:02:12;6.10;;;1.98;;
67049;SDS011;53955;52.442;13.284;2023-05-19T02:04:49;3.97;;;1.87;;
67049;SDS011;53955;52.442;13.284;2023-05-19T02:07:24;5.97;;;1.90;;
67049;SDS011;53955;52.442;13.284;2023-05-19T02:09:57;5.57;;;2.13;;
67049;SDS011;53955;52.442;13.284;2023-05-19T02:12:31;4.63;;;1.87;;
67049;SDS011;53955;52.442;13.284;2023-05-19T02:15:02;5.63;;;1.93;;
67049;SDS011;53955;52.442;13.284;2023-05-19T02:17:31;6.77;;;2.10;;
67049;SDS011;53955;52.442;13.284;2023-05-19T02:20:02;7.03;;;2.50;;
67049;SDS011;53955;52.442;13.284;2023-05-19T02:22:29;5.73;;;1.90;;
67049;SDS011;53955;52.442;13.284;2023-05-19T02:24:56;4.25;;;2.22;;
67049;SDS011;53955;52.442;13.284;2023-05-19T02:27:22;4.70;;;2.08;;
67049;SDS011;53955;52.442;13.284;2023-05-19T02:29:50;5.88;;;1.90;;
67049;SDS011;53955;52.442;13.284;2023-05-19T02:32:16;5.65;;;2.10;;
67049;SDS011;53955;52.442;13.284;2023-05-19T02:34:43;3.30;;;1.85;;
67049;SDS011;53955;52.442;13.284;2023-05-19T02:37:11;4.75;;;1.83;;
67049;SDS011;53955;52.442;13.284;2023-05-19T02:39:38;4.35;;;2.00;;
67049;SDS011;53955;52.442;13.284;2023-05-19T02:42:05;3.30;;;2.00;;
67049;SDS011;53955;52.442;13.284;2023-05-19T02:44:31;5.37;;;2.00;;
67049;SDS011;53955;52.442;13.284;2023-05-19T02:46:58;8.43;;;2.40;;
67049;SDS011;53955;52.442;13.284;2023-05-19T02:49:25;3.77;;;1.73;;
67049;SDS011;53955;52.442;13.284;2023-05-19T02:51:54;4.83;;;2.13;;
67049;SDS011;53955;52.442;13.284;2023-05-19T02:54:22;5.07;;;2.50;;
67049;SDS011;53955;52.442;13.284;2023-05-19T02:56:49;4.30;;;2.00;;
67049;SDS011;53955;52.442;13.284;2023-05-19T02:59:15;5.30;;;2.00;;
67049;SDS011;53955;52.442;13.284;2023-05-19T03:01:42;3.77;;;1.83;;
67049;SDS011;53955;52.442;13.284;2023-05-19T03:04:08;4.03;;;2.20;;
67049;SDS011;53955;52.442;13.284;2023-05-19T03:06:35;6.17;;;2.00;;
67049;SDS011;53955;52.442;13.284;2023-05-19T03:09:02;6.03;;;1.90;;
67049;SDS011;53955;52.442;13.284;2023-05-19T03:11:31;6.67;;;1.83;;
67049;SDS011;53955;52.442;13.284;2023-05-19T03:13:57;4.13;;;1.90;;
67049;SDS011;53955;52.442;13.284;2023-05-19T03:16:24;4.65;;;1.83;;
67049;SDS011;53955;52.442;13.284;2023-05-19T03:18:52;4.78;;;1.80;;
67049;SDS011;53955;52.442;13.284;2023-05-19T03:21:19;9.43;;;2.17;;
67049;SDS011;53955;52.442;13.284;2023-05-19T03:23:46;5.40;;;2.30;;
67049;SDS011;53955;52.442;13.284;2023-05-19T03:26:12;9.98;;;2.60;;
67049;SDS011;53955;52.442;13.284;2023-05-19T03:31:07;7.90;;;2.37;;
67049;SDS011;53955;52.442;13.284;2023-05-19T03:33:33;7.03;;;1.95;;
67049;SDS011;53955;52.442;13.284;2023-05-19T03:36:00;3.33;;;1.67;;
67049;SDS011;53955;52.442;13.284;2023-05-19T03:38:27;4.80;;;1.77;;
67049;SDS011;53955;52.442;13.284;2023-05-19T03:40:54;6.63;;;3.40;;
67049;SDS011;53955;52.442;13.284;2023-05-19T03:43:21;6.27;;;2.43;;
67049;SDS011;53955;52.442;13.284;2023-05-19T03:45:48;3.97;;;1.90;;
67049;SDS011;53955;52.442;13.284;2023-05-19T03:48:15;3.93;;;1.97;;
67049;SDS011;53955;52.442;13.284;2023-05-19T03:50:42;4.53;;;1.57;;
67049;SDS011;53955;52.442;13.284;2023-05-19T03:53:08;6.93;;;2.10;;
67049;SDS011;53955;52.442;13.284;2023-05-19T03:55:35;5.10;;;2.10;;
67049;SDS011;53955;52.442;13.284;2023-05-19T03:58:02;6.33;;;1.80;;
67049;SDS011;53955;52.442;13.284;2023-05-19T04:00:28;7.05;;;2.75;;
67049;SDS011;53955;52.442;13.284;2023-05-19T04:02:56;4.75;;;2.25;;
67049;SDS011;53955;52.442;13.284;2023-05-19T04:05:24;4.97;;;1.95;;
67049;SDS011;53955;52.442;13.284;2023-05-19T04:07:50;4.90;;;1.80;;
67049;SDS011;53955;52.442;13.284;2023-05-19T04:10:17;4.28;;;1.70;;
67049;SDS011;53955;52.442;13.284;2023-05-19T04:12:44;3.58;;;1.90;;
67049;SDS011;53955;52.442;13.284;2023-05-19T04:15:11;4.73;;;1.90;;
67049;SDS011;53955;52.442;13.284;2023-05-19T04:20:07;3.63;;;1.90;;
67049;SDS011;53955;52.442;13.284;2023-05-19T04:22:34;3.40;;;1.80;;
67049;SDS011;53955;52.442;13.284;2023-05-19T04:25:00;5.57;;;2.47;;
67049;SDS011;53955;52.442;13.284;2023-05-19T04:27:28;5.87;;;2.10;;
67049;SDS011;53955;52.442;13.284;2023-05-19T04:29:55;5.63;;;2.03;;
67049;SDS011;53955;52.442;13.284;2023-05-19T04:32:23;5.17;;;1.90;;
67049;SDS011;53955;52.442;13.284;2023-05-19T04:34:50;4.73;;;2.00;;
67049;SDS011;53955;52.442;13.284;2023-05-19T04:37:17;6.00;;;2.30;;
67049;SDS011;53955;52.442;13.284;2023-05-19T04:39:44;3.97;;;1.97;;
67049;SDS011;53955;52.442;13.284;2023-05-19T04:42:12;4.28;;;2.13;;
67049;SDS011;53955;52.442;13.284;2023-05-19T04:44:38;5.40;;;2.20;;
67049;SDS011;53955;52.442;13.284;2023-05-19T04:47:06;5.07;;;1.73;;
67049;SDS011;53955;52.442;13.284;2023-05-19T04:49:33;3.72;;;2.00;;
67049;SDS011;53955;52.442;13.284;2023-05-19T04:52:03;4.05;;;1.98;;
67049;SDS011;53955;52.442;13.284;2023-05-19T04:54:32;2.60;;;1.80;;
67049;SDS011;53955;52.442;13.284;2023-05-19T04:56:59;6.75;;;2.47;;
67049;SDS011;53955;52.442;13.284;2023-05-19T04:59:26;5.72;;;2.25;;
67049;SDS011;53955;52.442;13.284;2023-05-19T05:01:52;5.38;;;2.20;;
67049;SDS011;53955;52.442;13.284;2023-05-19T05:04:20;4.00;;;2.20;;
67049;SDS011;53955;52.442;13.284;2023-05-19T05:06:46;5.38;;;2.20;;
67049;SDS011;53955;52.442;13.284;2023-05-19T05:09:13;5.20;;;2.00;;
67049;SDS011;53955;52.442;13.284;2023-05-19T05:11:41;4.55;;;1.88;;
67049;SDS011;53955;52.442;13.284;2023-05-19T05:14:09;3.97;;;2.28;;
67049;SDS011;53955;52.442;13.284;2023-05-19T05:16:36;6.25;;;2.40;;
67049;SDS011;53955;52.442;13.284;2023-05-19T05:19:03;4.75;;;2.20;;
67049;SDS011;53955;52.442;13.284;2023-05-19T05:21:30;6.15;;;1.80;;
67049;SDS011;53955;52.442;13.284;2023-05-19T05:26:23;6.40;;;2.27;;
67049;SDS011;53955;52.442;13.284;2023-05-19T05:36:15;5.82;;;1.98;;
67049;SDS011;53955;52.442;13.284;2023-05-19T05:38:42;3.63;;;2.08;;
67049;SDS011;53955;52.442;13.284;2023-05-19T05:41:08;6.43;;;2.55;;
67049;SDS011;53955;52.442;13.284;2023-05-19T05:43:35;6.38;;;2.17;;
67049;SDS011;53955;52.442;13.284;2023-05-19T05:46:03;4.47;;;2.28;;
67049;SDS011;53955;52.442;13.284;2023-05-19T05:48:30;5.45;;;2.10;;
67049;SDS011;53955;52.442;13.284;2023-05-19T05:50:57;4.03;;;2.35;;
67049;SDS011;53955;52.442;13.284;2023-05-19T05:53:25;5.50;;;2.10;;
67049;SDS011;53955;52.442;13.284;2023-05-19T05:55:56;5.55;;;1.90;;
67049;SDS011;53955;52.442;13.284;2023-05-19T05:58:23;3.10;;;1.77;;
67049;SDS011;53955;52.442;13.284;2023-05-19T06:00:50;5.95;;;2.63;;
67049;SDS011;53955;52.442;13.284;2023-05-19T06:03:20;6.00;;;2.30;;
67049;SDS011;53955;52.442;13.284;2023-05-19T06:05:48;5.33;;;2.67;;
67049;SDS011;53955;52.442;13.284;2023-05-19T06:08:14;5.65;;;2.40;;
67049;SDS011;53955;52.442;13.284;2023-05-19T06:10:41;5.82;;;2.33;;
67049;SDS011;53955;52.442;13.284;2023-05-19T06:13:08;4.60;;;2.25;;
67049;SDS011;53955;52.442;13.284;2023-05-19T06:15:35;4.45;;;2.63;;
67049;SDS011;53955;52.442;13.284;2023-05-19T06:18:01;4.63;;;2.22;;
67049;SDS011;53955;52.442;13.284;2023-05-19T06:20:29;9.43;;;2.63;;
67049;SDS011;53955;52.442;13.284;2023-05-19T06:22:56;6.22;;;2.20;;
67049;SDS011;53955;52.442;13.284;2023-05-19T06:25:22;6.57;;;2.28;;
67049;SDS011;53955;52.442;13.284;2023-05-19T06:27:49;3.90;;;2.25;;
67049;SDS011;53955;52.442;13.284;2023-05-19T06:30:16;6.63;;;2.97;;
67049;SDS011;53955;52.442;13.284;2023-05-19T06:32:42;5.25;;;2.55;;
67049;SDS011;53955;52.442;13.284;2023-05-19T06:35:10;5.20;;;2.60;;
67049;SDS011;53955;52.442;13.284;2023-05-19T06:37:37;6.03;;;2.33;;
67049;SDS011;53955;52.442;13.284;2023-05-19T06:40:04;5.55;;;2.50;;
67049;SDS011;53955;52.442;13.284;2023-05-19T06:42:32;6.90;;;2.33;;
67049;SDS011;53955;52.442;13.284;2023-05-19T06:44:59;3.95;;;2.05;;
67049;SDS011;53955;52.442;13.284;2023-05-19T06:47:25;4.90;;;2.20;;
67049;SDS011;53955;52.442;13.284;2023-05-19T06:49:52;7.13;;;2.10;;
67049;SDS011;53955;52.442;13.284;2023-05-19T06:52:19;5.68;;;2.30;;
67049;SDS011;53955;52.442;13.284;2023-05-19T06:54:47;5.95;;;2.28;;
67049;SDS011;53955;52.442;13.284;2023-05-19T06:57:14;5.38;;;2.25;;
67049;SDS011;53955;52.442;13.284;2023-05-19T06:59:41;4.22;;;2.38;;
67049;SDS011;53955;52.442;13.284;2023-05-19T07:02:08;5.85;;;2.65;;
67049;SDS011;53955;52.442;13.284;2023-05-19T07:04:35;4.95;;;2.30;;
67049;SDS011;53955;52.442;13.284;2023-05-19T07:07:02;4.28;;;2.10;;
67049;SDS011;53955;52.442;13.284;2023-05-19T07:09:28;6.50;;;2.40;;
67049;SDS011;53955;52.442;13.284;2023-05-19T07:11:56;4.68;;;2.22;;
67049;SDS011;53955;52.442;13.284;2023-05-19T07:14:23;6.15;;;2.05;;
67049;SDS011;53955;52.442;13.284;2023-05-19T07:16:50;4.65;;;2.20;;
67049;SDS011;53955;52.442;13.284;2023-05-19T07:19:16;5.53;;;2.10;;
67049;SDS011;53955;52.442;13.284;2023-05-19T07:21:43;9.65;;;2.45;;
67049;SDS011;53955;52.442;13.284;2023-05-19T07:24:10;6.28;;;2.40;;
67049;SDS011;53955;52.442;13.284;2023-05-19T07:26:37;5.13;;;2.50;;
67049;SDS011;53955;52.442;13.284;2023-05-19T07:29:05;7.18;;;2.78;;
67049;SDS011;53955;52.442;13.284;2023-05-19T07:31:31;4.78;;;2.25;;
67049;SDS011;53955;52.442;13.284;2023-05-19T07:33:58;5.35;;;2.13;;
67049;SDS011;53955;52.442;13.284;2023-05-19T07:36:25;6.07;;;2.60;;
67049;SDS011;53955;52.442;13.284;2023-05-19T07:38:51;4.88;;;2.95;;
67049;SDS011;53955;52.442;13.284;2023-05-19T07:41:18;12.45;;;2.53;;
67049;SDS011;53955;52.442;13.284;2023-05-19T07:43:45;6.97;;;2.70;;
67049;SDS011;53955;52.442;13.284;2023-05-19T07:46:13;4.78;;;2.47;;
67049;SDS011;53955;52.442;13.284;2023-05-19T07:48:40;5.90;;;2.70;;
67049;SDS011;53955;52.442;13.284;2023-05-19T07:51:06;6.45;;;2.80;;
67049;SDS011;53955;52.442;13.284;2023-05-19T07:53:34;7.20;;;2.08;;
67049;SDS011;53955;52.442;13.284;2023-05-19T07:56:00;3.20;;;2.30;;
67049;SDS011;53955;52.442;13.284;2023-05-19T07:58:27;5.30;;;2.45;;
67049;SDS011;53955;52.442;13.284;2023-05-19T08:00:55;5.32;;;2.65;;
67049;SDS011;53955;52.442;13.284;2023-05-19T08:03:23;5.15;;;2.75;;
67049;SDS011;53955;52.442;13.284;2023-05-19T08:05:50;4.95;;;2.63;;
67049;SDS011;53955;52.442;13.284;2023-05-19T08:08:17;8.25;;;2.33;;
67049;SDS011;53955;52.442;13.284;2023-05-19T08:10:44;5.57;;;2.42;;
67049;SDS011;53955;52.442;13.284;2023-05-19T08:13:11;4.22;;;2.60;;
67049;SDS011;53955;52.442;13.284;2023-05-19T08:15:38;6.80;;;2.50;;
67049;SDS011;53955;52.442;13.284;2023-05-19T08:18:05;4.30;;;2.35;;
67049;SDS011;53955;52.442;13.284;2023-05-19T08:20:33;6.60;;;2.65;;
67049;SDS011;53955;52.442;13.284;2023-05-19T08:22:59;3.85;;;2.47;;
67049;SDS011;53955;52.442;13.284;2023-05-19T08:25:26;6.50;;;2.58;;
67049;SDS011;53955;52.442;13.284;2023-05-19T08:27:52;5.88;;;2.05;;
67049;SDS011;53955;52.442;13.284;2023-05-19T08:30:19;3.33;;;1.95;;
67049;SDS011;53955;52.442;13.284;2023-05-19T08:32:46;3.87;;;1.97;;
67049;SDS011;53955;52.442;13.284;2023-05-19T08:35:13;4.75;;;2.38;;
67049;SDS011;53955;52.442;13.284;2023-05-19T08:37:41;12.10;;;2.85;;
67049;SDS011;53955;52.442;13.284;2023-05-19T08:40:08;4.55;;;1.83;;
67049;SDS011;53955;52.442;13.284;2023-05-19T08:42:41;4.07;;;2.05;;
67049;SDS011;53955;52.442;13.284;2023-05-19T08:47:34;3.58;;;1.90;;
67049;SDS011;53955;52.442;13.284;2023-05-19T08:50:02;5.63;;;2.10;;
67049;SDS011;53955;52.442;13.284;2023-05-19T08:57:29;4.50;;;2.38;;
67049;SDS011;53955;52.442;13.284;2023-05-19T08:59:58;5.65;;;1.92;;
67049;SDS011;53955;52.442;13.284;2023-05-19T09:02:25;2.75;;;1.77;;
67049;SDS011;53955;52.442;13.284;2023-05-19T09:04:52;4.63;;;2.72;;
67049;SDS011;53955;52.442;13.284;2023-05-19T09:07:21;3.97;;;1.83;;
67049;SDS011;53955;52.442;13.284;2023-05-19T09:09:49;5.70;;;2.13;;
67049;SDS011;53955;52.442;13.284;2023-05-19T09:12:17;4.47;;;1.95;;
67049;SDS011;53955;52.442;13.284;2023-05-19T09:14:44;4.72;;;2.22;;
67049;SDS011;53955;52.442;13.284;2023-05-19T09:17:11;2.78;;;1.80;;
67049;SDS011;53955;52.442;13.284;2023-05-19T09:19:41;4.97;;;2.30;;
67049;SDS011;53955;52.442;13.284;2023-05-19T09:22:08;5.93;;;2.38;;
67049;SDS011;53955;52.442;13.284;2023-05-19T09:24:35;2.50;;;1.58;;
67049;SDS011;53955;52.442;13.284;2023-05-19T09:27:02;3.08;;;1.50;;
67049;SDS011;53955;52.442;13.284;2023-05-19T09:29:30;2.58;;;1.67;;
67049;SDS011;53955;52.442;13.284;2023-05-19T09:31:57;4.10;;;1.70;;
67049;SDS011;53955;52.442;13.284;2023-05-19T09:34:24;3.70;;;1.63;;
67049;SDS011;53955;52.442;13.284;2023-05-19T09:36:51;4.53;;;1.67;;
67049;SDS011;53955;52.442;13.284;2023-05-19T09:39:19;5.45;;;1.45;;
67049;SDS011;53955;52.442;13.284;2023-05-19T09:41:47;2.45;;;1.25;;
67049;SDS011;53955;52.442;13.284;2023-05-19T09:44:20;7.07;;;1.80;;
67049;SDS011;53955;52.442;13.284;2023-05-19T09:46:49;3.50;;;1.45;;
67049;SDS011;53955;52.442;13.284;2023-05-19T09:49:17;3.20;;;1.40;;
67049;SDS011;53955;52.442;13.284;2023-05-19T09:51:47;2.75;;;1.30;;
67049;SDS011;53955;52.442;13.284;2023-05-19T09:54:15;3.35;;;1.02;;
67049;SDS011;53955;52.442;13.284;2023-05-19T09:56:41;3.58;;;1.13;;
67049;SDS011;53955;52.442;13.284;2023-05-19T09:59:08;2.28;;;1.17;;
67049;SDS011;53955;52.442;13.284;2023-05-19T10:01:35;4.97;;;1.80;;
67049;SDS011;53955;52.442;13.284;2023-05-19T10:04:06;2.25;;;1.30;;
67049;SDS011;53955;52.442;13.284;2023-05-19T10:06:33;4.05;;;1.67;;
67049;SDS011;53955;52.442;13.284;2023-05-19T10:09:01;2.90;;;1.30;;
67049;SDS011;53955;52.442;13.284;2023-05-19T10:11:34;1.75;;;1.00;;
67049;SDS011;53955;52.442;13.284;2023-05-19T10:14:01;2.67;;;1.35;;
67049;SDS011;53955;52.442;13.284;2023-05-19T10:16:29;4.03;;;1.25;;
67049;SDS011;53955;52.442;13.284;2023-05-19T10:18:57;2.85;;;1.40;;
67049;SDS011;53955;52.442;13.284;2023-05-19T10:21:26;2.10;;;1.23;;
67049;SDS011;53955;52.442;13.284;2023-05-19T10:23:53;5.00;;;1.90;;
67049;SDS011;53955;52.442;13.284;2023-05-19T10:26:20;3.57;;;1.57;;
67049;SDS011;53955;52.442;13.284;2023-05-19T10:28:47;2.80;;;2.00;;
67049;SDS011;53955;52.442;13.284;2023-05-19T10:31:16;4.55;;;1.33;;
67049;SDS011;53955;52.442;13.284;2023-05-19T10:33:52;3.25;;;1.45;;
67049;SDS011;53955;52.442;13.284;2023-05-19T10:36:33;2.67;;;1.50;;
67049;SDS011;53955;52.442;13.284;2023-05-19T10:39:15;3.25;;;1.60;;
67049;SDS011;53955;52.442;13.284;2023-05-19T10:41:45;2.38;;;1.60;;
67049;SDS011;53955;52.442;13.284;2023-05-19T10:44:21;3.10;;;1.77;;
67049;SDS011;53955;52.442;13.284;2023-05-19T10:46:56;3.05;;;1.65;;
67049;SDS011;53955;52.442;13.284;2023-05-19T10:49:23;2.60;;;1.42;;
67049;SDS011;53955;52.442;13.284;2023-05-19T10:51:52;2.97;;;1.15;;
67049;SDS011;53955;52.442;13.284;2023-05-19T10:57:07;3.58;;;1.83;;
67049;SDS011;53955;52.442;13.284;2023-05-19T10:59:34;2.40;;;1.30;;
67049;SDS011;53955;52.442;13.284;2023-05-19T11:02:03;2.95;;;1.52;;
67049;SDS011;53955;52.442;13.284;2023-05-19T11:04:44;3.30;;;1.40;;
67049;SDS011;53955;52.442;13.284;2023-05-19T11:07:15;3.25;;;1.50;;
67049;SDS011;53955;52.442;13.284;2023-05-19T11:09:43;1.95;;;1.23;;
67049;SDS011;53955;52.442;13.284;2023-05-19T11:12:18;2.05;;;1.30;;
67049;SDS011;53955;52.442;13.284;2023-05-19T11:14:45;2.80;;;1.40;;
67049;SDS011;53955;52.442;13.284;2023-05-19T11:17:12;1.95;;;1.25;;
67049;SDS011;53955;52.442;13.284;2023-05-19T11:19:40;2.75;;;1.33;;
67049;SDS011;53955;52.442;13.284;2023-05-19T11:22:21;4.38;;;1.50;;
67049;SDS011;53955;52.442;13.284;2023-05-19T11:24:48;2.08;;;1.30;;
67049;SDS011;53955;52.442;13.284;2023-05-19T11:27:21;1.85;;;1.30;;
67049;SDS011;53955;52.442;13.284;2023-05-19T11:29:50;2.00;;;1.20;;
67049;SDS011;53955;52.442;13.284;2023-05-19T11:32:18;3.20;;;1.33;;
67049;SDS011;53955;52.442;13.284;2023-05-19T11:34:46;3.20;;;1.40;;
67049;SDS011;53955;52.442;13.284;2023-05-19T11:37:13;3.25;;;1.42;;
67049;SDS011;53955;52.442;13.284;2023-05-19T11:39:41;2.50;;;1.15;;
67049;SDS011;53955;52.442;13.284;2023-05-19T11:42:09;3.08;;;1.58;;
67049;SDS011;53955;52.442;13.284;2023-05-19T11:44:35;2.95;;;1.33;;
67049;SDS011;53955;52.442;13.284;2023-05-19T11:47:05;4.45;;;1.27;;
67049;SDS011;53955;52.442;13.284;2023-05-19T11:49:31;2.75;;;1.77;;
67049;SDS011;53955;52.442;13.284;2023-05-19T11:51:58;5.85;;;1.58;;
67049;SDS011;53955;52.442;13.284;2023-05-19T11:54:28;2.22;;;1.48;;
67049;SDS011;53955;52.442;13.284;2023-05-19T11:56:56;2.45;;;1.40;;
67049;SDS011;53955;52.442;13.284;2023-05-19T11:59:29;2.50;;;1.40;;
67049;SDS011;53955;52.442;13.284;2023-05-19T12:01:59;2.13;;;1.30;;
67049;SDS011;53955;52.442;13.284;2023-05-19T12:04:27;2.00;;;1.27;;
67049;SDS011;53955;52.442;13.284;2023-05-19T12:06:54;2.17;;;1.27;;
67049;SDS011;53955;52.442;13.284;2023-05-19T12:09:21;3.28;;;1.40;;
67049;SDS011;53955;52.442;13.284;2023-05-19T12:11:48;4.13;;;1.90;;
67049;SDS011;53955;52.442;13.284;2023-05-19T12:14:17;2.22;;;1.55;;
67049;SDS011;53955;52.442;13.284;2023-05-19T12:16:44;3.25;;;1.35;;
67049;SDS011;53955;52.442;13.284;2023-05-19T12:19:10;4.43;;;1.75;;
67049;SDS011;53955;52.442;13.284;2023-05-19T12:21:37;2.50;;;1.50;;
67049;SDS011;53955;52.442;13.284;2023-05-19T12:24:04;2.60;;;1.50;;
67049;SDS011;53955;52.442;13.284;2023-05-19T12:26:31;2.45;;;1.40;;
67049;SDS011;53955;52.442;13.284;2023-05-19T12:28:59;2.33;;;1.48;;
67049;SDS011;53955;52.442;13.284;2023-05-19T12:31:28;2.05;;;1.40;;
67049;SDS011;53955;52.442;13.284;2023-05-19T12:33:54;1.80;;;1.30;;
67049;SDS011;53955;52.442;13.284;2023-05-19T12:36:22;3.05;;;1.70;;
67049;SDS011;53955;52.442;13.284;2023-05-19T12:38:52;3.10;;;1.70;;
67049;SDS011;53955;52.442;13.284;2023-05-19T12:41:19;2.50;;;1.50;;
67049;SDS011;53955;52.442;13.284;2023-05-19T12:43:47;2.75;;;1.65;;
67049;SDS011;53955;52.442;13.284;2023-05-19T12:46:14;3.17;;;1.50;;
67049;SDS011;53955;52.442;13.284;2023-05-19T12:48:45;3.78;;;1.40;;
67049;SDS011;53955;52.442;13.284;2023-05-19T12:56:10;3.78;;;1.40;;
67049;SDS011;53955;52.442;13.284;2023-05-19T13:06:05;5.25;;;1.88;;
67049;SDS011;53955;52.442;13.284;2023-05-19T13:08:33;3.00;;;1.75;;
67049;SDS011;53955;52.442;13.284;2023-05-19T13:10:59;1.83;;;1.27;;
67049;SDS011;53955;52.442;13.284;2023-05-19T13:13:26;3.35;;;1.55;;
67049;SDS011;53955;52.442;13.284;2023-05-19T13:15:53;2.88;;;1.70;;
67049;SDS011;53955;52.442;13.284;2023-05-19T13:18:20;2.47;;;1.50;;
67049;SDS011;53955;52.442;13.284;2023-05-19T13:20:47;2.80;;;1.35;;
67049;SDS011;53955;52.442;13.284;2023-05-19T13:23:16;2.92;;;1.40;;
67049;SDS011;53955;52.442;13.284;2023-05-19T13:25:43;5.65;;;1.83;;
67049;SDS011;53955;52.442;13.284;2023-05-19T13:28:09;2.58;;;1.70;;
67049;SDS011;53955;52.442;13.284;2023-05-19T13:30:37;2.60;;;1.40;;
67049;SDS011;53955;52.442;13.284;2023-05-19T13:33:05;3.30;;;1.60;;
67049;SDS011;53955;52.442;13.284;2023-05-19T13:35:32;5.35;;;1.73;;
67049;SDS011;53955;52.442;13.284;2023-05-19T13:38:01;2.15;;;1.40;;
67049;SDS011;53955;52.442;13.284;2023-05-19T13:40:49;2.78;;;1.50;;
67049;SDS011;53955;52.442;13.284;2023-05-19T13:43:48;2.60;;;1.60;;
67049;SDS011;53955;52.442;13.284;2023-05-19T13:46:15;2.85;;;1.73;;
67049;SDS011;53955;52.442;13.284;2023-05-19T13:48:41;4.50;;;1.58;;
67049;SDS011;53955;52.442;13.284;2023-05-19T13:51:08;3.25;;;1.95;;
67049;SDS011;53955;52.442;13.284;2023-05-19T13:53:36;5.10;;;1.73;;
67049;SDS011;53955;52.442;13.284;2023-05-19T13:56:04;3.00;;;1.48;;
67049;SDS011;53955;52.442;13.284;2023-05-19T13:58:31;2.83;;;1.70;;
67049;SDS011;53955;52.442;13.284;2023-05-19T14:00:58;2.42;;;1.38;;
67049;SDS011;53955;52.442;13.284;2023-05-19T14:03:25;3.30;;;1.38;;
67049;SDS011;53955;52.442;13.284;2023-05-19T14:05:51;3.47;;;1.40;;
67049;SDS011;53955;52.442;13.284;2023-05-19T14:08:18;3.55;;;1.90;;
67049;SDS011;53955;52.442;13.284;2023-05-19T14:10:46;2.33;;;1.50;;
67049;SDS011;53955;52.442;13.284;2023-05-19T14:13:14;3.20;;;1.90;;
67049;SDS011;53955;52.442;13.284;2023-05-19T14:15:40;2.53;;;1.30;;
67049;SDS011;53955;52.442;13.284;2023-05-19T14:18:07;3.00;;;1.30;;
67049;SDS011;53955;52.442;13.284;2023-05-19T14:20:33;2.47;;;1.73;;
67049;SDS011;53955;52.442;13.284;2023-05-19T14:23:00;3.90;;;1.70;;
67049;SDS011;53955;52.442;13.284;2023-05-19T14:27:53;2.75;;;1.63;;
67049;SDS011;53955;52.442;13.284;2023-05-19T14:30:21;2.85;;;1.50;;
67049;SDS011;53955;52.442;13.284;2023-05-19T14:32:47;2.90;;;1.70;;
67049;SDS011;53955;52.442;13.284;2023-05-19T14:35:14;3.28;;;1.75;;
67049;SDS011;53955;52.442;13.284;2023-05-19T14:37:41;3.15;;;1.75;;
67049;SDS011;53955;52.442;13.284;2023-05-19T14:40:08;4.15;;;1.52;;
67049;SDS011;53955;52.442;13.284;2023-05-19T14:42:35;3.65;;;1.80;;
67049;SDS011;53955;52.442;13.284;2023-05-19T14:49:56;5.38;;;1.63;;
67049;SDS011;53955;52.442;13.284;2023-05-19T14:52:23;2.70;;;1.60;;
67049;SDS011;53955;52.442;13.284;2023-05-19T14:54:50;5.57;;;1.60;;
67049;SDS011;53955;52.442;13.284;2023-05-19T14:59:43;3.80;;;1.73;;
67049;SDS011;53955;52.442;13.284;2023-05-19T15:02:09;2.97;;;1.40;;
67049;SDS011;53955;52.442;13.284;2023-05-19T15:04:37;4.35;;;1.90;;
67049;SDS011;53955;52.442;13.284;2023-05-19T15:07:04;3.17;;;1.58;;
67049;SDS011;53955;52.442;13.284;2023-05-19T15:09:31;4.53;;;1.92;;
67049;SDS011;53955;52.442;13.284;2023-05-19T15:11:57;2.95;;;1.30;;
67049;SDS011;53955;52.442;13.284;2023-05-19T15:14:25;4.75;;;1.48;;
67049;SDS011;53955;52.442;13.284;2023-05-19T15:16:51;2.28;;;1.55;;
67049;SDS011;53955;52.442;13.284;2023-05-19T15:19:18;3.03;;;1.55;;
67049;SDS011;53955;52.442;13.284;2023-05-19T15:21:46;3.22;;;1.88;;
67049;SDS011;53955;52.442;13.284;2023-05-19T15:24:14;4.30;;;1.52;;
67049;SDS011;53955;52.442;13.284;2023-05-19T15:26:41;2.97;;;1.60;;